sensor_id;sensor_type;location;lat;lon;timestamp;P1;durP1;ratioP1;P2;durP2;ratioP2
38851;SDS011;24605;50.092;9.182;2023-10-09T00:01:19;14.55;;;6.70;;
38851;SDS011;24605;50.092;9.182;2023-10-09T00:03:45;14.05;;;6.45;;
38851;SDS011;24605;50.092;9.182;2023-10-09T00:06:17;14.73;;;7.40;;
38851;SDS011;24605;50.092;9.182;2023-10-09T00:08:49;12.55;;;6.70;;
38851;SDS011;24605;50.092;9.182;2023-10-09T00:11:19;15.15;;;7.18;;
38851;SDS011;24605;50.092;9.182;2023-10-09T00:13:47;11.45;;;6.22;;
38851;SDS011;24605;50.092;9.182;2023-10-09T00:16:19;13.63;;;6.43;;
38851;SDS011;24605;50.092;9.182;2023-10-09T00:18:57;12.60;;;7.10;;
38851;SDS011;24605;50.092;9.182;2023-10-09T00:21:37;19.73;;;7.53;;
38851;SDS011;24605;50.092;9.182;2023-10-09T00:24:04;15.52;;;7.32;;
38851;SDS011;24605;50.092;9.182;2023-10-09T00:26:38;19.42;;;6.93;;
38851;SDS011;24605;50.092;9.182;2023-10-09T00:29:10;15.27;;;7.20;;
38851;SDS011;24605;50.092;9.182;2023-10-09T00:31:43;14.95;;;7.45;;
38851;SDS011;24605;50.092;9.182;2023-10-09T00:34:15;14.33;;;6.43;;
38851;SDS011;24605;50.092;9.182;2023-10-09T00:36:44;17.85;;;7.10;;
38851;SDS011;24605;50.092;9.182;2023-10-09T00:39:15;14.13;;;6.55;;
38851;SDS011;24605;50.092;9.182;2023-10-09T00:41:55;18.38;;;6.80;;
38851;SDS011;24605;50.092;9.182;2023-10-09T00:44:23;14.15;;;6.78;;
38851;SDS011;24605;50.092;9.182;2023-10-09T00:46:52;19.77;;;7.18;;
38851;SDS011;24605;50.092;9.182;2023-10-09T00:49:19;16.92;;;7.82;;
38851;SDS011;24605;50.092;9.182;2023-10-09T00:51:48;17.95;;;7.00;;
38851;SDS011;24605;50.092;9.182;2023-10-09T00:54:21;13.80;;;6.53;;
38851;SDS011;24605;50.092;9.182;2023-10-09T00:56:52;18.38;;;7.15;;
38851;SDS011;24605;50.092;9.182;2023-10-09T00:59:23;19.20;;;8.27;;
38851;SDS011;24605;50.092;9.182;2023-10-09T01:01:53;16.52;;;6.70;;
38851;SDS011;24605;50.092;9.182;2023-10-09T01:04:23;16.67;;;6.95;;
38851;SDS011;24605;50.092;9.182;2023-10-09T01:06:51;16.65;;;7.30;;
38851;SDS011;24605;50.092;9.182;2023-10-09T01:09:33;16.70;;;6.80;;
38851;SDS011;24605;50.092;9.182;2023-10-09T01:12:03;20.20;;;7.82;;
38851;SDS011;24605;50.092;9.182;2023-10-09T01:14:30;20.10;;;7.57;;
38851;SDS011;24605;50.092;9.182;2023-10-09T01:17:02;14.95;;;6.88;;
38851;SDS011;24605;50.092;9.182;2023-10-09T01:19:32;16.13;;;7.13;;
38851;SDS011;24605;50.092;9.182;2023-10-09T01:21:59;17.77;;;7.13;;
38851;SDS011;24605;50.092;9.182;2023-10-09T01:24:30;17.98;;;7.30;;
38851;SDS011;24605;50.092;9.182;2023-10-09T01:27:00;17.95;;;6.95;;
38851;SDS011;24605;50.092;9.182;2023-10-09T01:29:30;16.55;;;6.57;;
38851;SDS011;24605;50.092;9.182;2023-10-09T01:31:57;14.18;;;6.50;;
38851;SDS011;24605;50.092;9.182;2023-10-09T01:34:27;15.32;;;6.38;;
38851;SDS011;24605;50.092;9.182;2023-10-09T01:37:04;13.02;;;6.38;;
38851;SDS011;24605;50.092;9.182;2023-10-09T01:39:38;15.07;;;6.63;;
38851;SDS011;24605;50.092;9.182;2023-10-09T01:42:06;17.27;;;6.65;;
38851;SDS011;24605;50.092;9.182;2023-10-09T01:44:34;13.55;;;6.60;;
38851;SDS011;24605;50.092;9.182;2023-10-09T01:47:01;16.90;;;6.20;;
38851;SDS011;24605;50.092;9.182;2023-10-09T01:49:32;23.90;;;8.25;;
38851;SDS011;24605;50.092;9.182;2023-10-09T01:52:00;16.33;;;6.40;;
38851;SDS011;24605;50.092;9.182;2023-10-09T01:54:33;15.60;;;6.50;;
38851;SDS011;24605;50.092;9.182;2023-10-09T01:57:03;20.38;;;6.97;;
38851;SDS011;24605;50.092;9.182;2023-10-09T01:59:34;17.40;;;7.13;;
38851;SDS011;24605;50.092;9.182;2023-10-09T02:02:03;17.70;;;6.80;;
38851;SDS011;24605;50.092;9.182;2023-10-09T02:04:39;15.52;;;7.32;;
38851;SDS011;24605;50.092;9.182;2023-10-09T02:07:06;15.38;;;7.32;;
38851;SDS011;24605;50.092;9.182;2023-10-09T02:09:33;21.17;;;7.15;;
38851;SDS011;24605;50.092;9.182;2023-10-09T02:12:00;17.88;;;7.88;;
38851;SDS011;24605;50.092;9.182;2023-10-09T02:14:28;16.25;;;7.05;;
38851;SDS011;24605;50.092;9.182;2023-10-09T02:16:55;20.30;;;7.85;;
38851;SDS011;24605;50.092;9.182;2023-10-09T02:19:34;14.07;;;6.95;;
38851;SDS011;24605;50.092;9.182;2023-10-09T02:22:02;16.55;;;7.35;;
38851;SDS011;24605;50.092;9.182;2023-10-09T02:24:37;19.73;;;7.25;;
38851;SDS011;24605;50.092;9.182;2023-10-09T02:27:23;17.15;;;6.97;;
38851;SDS011;24605;50.092;9.182;2023-10-09T02:30:06;19.73;;;7.38;;
38851;SDS011;24605;50.092;9.182;2023-10-09T02:32:42;16.85;;;7.13;;
38851;SDS011;24605;50.092;9.182;2023-10-09T02:35:10;20.90;;;7.30;;
38851;SDS011;24605;50.092;9.182;2023-10-09T02:37:45;19.92;;;7.40;;
38851;SDS011;24605;50.092;9.182;2023-10-09T02:40:12;18.65;;;7.55;;
38851;SDS011;24605;50.092;9.182;2023-10-09T02:42:48;16.38;;;6.38;;
38851;SDS011;24605;50.092;9.182;2023-10-09T02:45:16;16.88;;;7.25;;
38851;SDS011;24605;50.092;9.182;2023-10-09T02:47:43;17.77;;;7.53;;
38851;SDS011;24605;50.092;9.182;2023-10-09T02:50:13;20.42;;;8.05;;
38851;SDS011;24605;50.092;9.182;2023-10-09T02:52:46;17.23;;;7.20;;
38851;SDS011;24605;50.092;9.182;2023-10-09T02:55:18;15.77;;;7.05;;
38851;SDS011;24605;50.092;9.182;2023-10-09T02:57:50;17.73;;;6.78;;
38851;SDS011;24605;50.092;9.182;2023-10-09T03:00:30;13.38;;;6.65;;
38851;SDS011;24605;50.092;9.182;2023-10-09T03:03:01;16.60;;;6.65;;
38851;SDS011;24605;50.092;9.182;2023-10-09T03:05:31;16.10;;;6.35;;
38851;SDS011;24605;50.092;9.182;2023-10-09T03:07:58;14.90;;;6.57;;
38851;SDS011;24605;50.092;9.182;2023-10-09T03:10:25;14.65;;;6.43;;
38851;SDS011;24605;50.092;9.182;2023-10-09T03:12:51;14.52;;;6.70;;
38851;SDS011;24605;50.092;9.182;2023-10-09T03:15:18;17.42;;;6.38;;
38851;SDS011;24605;50.092;9.182;2023-10-09T03:17:46;19.00;;;7.22;;
38851;SDS011;24605;50.092;9.182;2023-10-09T03:20:13;16.30;;;6.60;;
38851;SDS011;24605;50.092;9.182;2023-10-09T03:22:42;15.48;;;6.30;;
38851;SDS011;24605;50.092;9.182;2023-10-09T03:25:10;18.25;;;6.70;;
38851;SDS011;24605;50.092;9.182;2023-10-09T03:27:39;18.02;;;6.55;;
38851;SDS011;24605;50.092;9.182;2023-10-09T03:30:10;14.80;;;6.30;;
38851;SDS011;24605;50.092;9.182;2023-10-09T03:32:42;13.80;;;5.97;;
38851;SDS011;24605;50.092;9.182;2023-10-09T03:35:11;14.77;;;5.30;;
38851;SDS011;24605;50.092;9.182;2023-10-09T03:37:42;12.60;;;5.30;;
38851;SDS011;24605;50.092;9.182;2023-10-09T03:40:09;11.77;;;5.97;;
38851;SDS011;24605;50.092;9.182;2023-10-09T03:42:42;15.00;;;5.85;;
38851;SDS011;24605;50.092;9.182;2023-10-09T03:45:09;14.93;;;5.55;;
38851;SDS011;24605;50.092;9.182;2023-10-09T03:47:53;14.82;;;6.28;;
38851;SDS011;24605;50.092;9.182;2023-10-09T03:50:30;18.10;;;5.95;;
38851;SDS011;24605;50.092;9.182;2023-10-09T03:53:02;12.35;;;5.13;;
38851;SDS011;24605;50.092;9.182;2023-10-09T03:55:33;16.40;;;5.10;;
38851;SDS011;24605;50.092;9.182;2023-10-09T03:58:03;15.15;;;5.22;;
38851;SDS011;24605;50.092;9.182;2023-10-09T04:00:29;12.63;;;4.90;;
38851;SDS011;24605;50.092;9.182;2023-10-09T04:02:57;13.70;;;4.85;;
38851;SDS011;24605;50.092;9.182;2023-10-09T04:05:24;13.13;;;5.22;;
38851;SDS011;24605;50.092;9.182;2023-10-09T04:07:53;14.70;;;5.00;;
38851;SDS011;24605;50.092;9.182;2023-10-09T04:10:23;14.30;;;5.50;;
38851;SDS011;24605;50.092;9.182;2023-10-09T04:15:25;11.25;;;5.13;;
38851;SDS011;24605;50.092;9.182;2023-10-09T04:17:55;13.18;;;4.82;;
38851;SDS011;24605;50.092;9.182;2023-10-09T04:20:22;10.20;;;4.80;;
38851;SDS011;24605;50.092;9.182;2023-10-09T04:23:04;13.10;;;4.72;;
38851;SDS011;24605;50.092;9.182;2023-10-09T04:25:31;11.88;;;4.55;;
38851;SDS011;24605;50.092;9.182;2023-10-09T04:28:07;10.23;;;4.30;;
38851;SDS011;24605;50.092;9.182;2023-10-09T04:30:35;13.18;;;4.47;;
38851;SDS011;24605;50.092;9.182;2023-10-09T04:33:05;21.45;;;5.28;;
38851;SDS011;24605;50.092;9.182;2023-10-09T04:35:53;17.25;;;5.28;;
38851;SDS011;24605;50.092;9.182;2023-10-09T04:38:42;10.52;;;4.85;;
38851;SDS011;24605;50.092;9.182;2023-10-09T04:41:21;14.02;;;5.97;;
38851;SDS011;24605;50.092;9.182;2023-10-09T04:43:53;14.45;;;5.30;;
38851;SDS011;24605;50.092;9.182;2023-10-09T04:46:29;11.23;;;3.80;;
38851;SDS011;24605;50.092;9.182;2023-10-09T04:49:08;13.93;;;4.25;;
38851;SDS011;24605;50.092;9.182;2023-10-09T04:51:51;13.95;;;4.50;;
38851;SDS011;24605;50.092;9.182;2023-10-09T04:54:30;11.30;;;4.80;;
38851;SDS011;24605;50.092;9.182;2023-10-09T04:57:14;12.05;;;4.43;;
38851;SDS011;24605;50.092;9.182;2023-10-09T04:59:43;13.38;;;4.43;;
38851;SDS011;24605;50.092;9.182;2023-10-09T05:02:13;11.98;;;4.60;;
38851;SDS011;24605;50.092;9.182;2023-10-09T05:04:45;11.40;;;4.50;;
38851;SDS011;24605;50.092;9.182;2023-10-09T05:07:13;12.20;;;4.82;;
38851;SDS011;24605;50.092;9.182;2023-10-09T05:10:12;12.60;;;4.70;;
38851;SDS011;24605;50.092;9.182;2023-10-09T05:12:42;10.48;;;4.47;;
38851;SDS011;24605;50.092;9.182;2023-10-09T05:15:12;13.95;;;4.63;;
38851;SDS011;24605;50.092;9.182;2023-10-09T05:17:39;10.68;;;4.13;;
38851;SDS011;24605;50.092;9.182;2023-10-09T05:20:05;14.77;;;4.47;;
38851;SDS011;24605;50.092;9.182;2023-10-09T05:22:46;11.02;;;5.53;;
38851;SDS011;24605;50.092;9.182;2023-10-09T05:25:25;10.38;;;4.70;;
38851;SDS011;24605;50.092;9.182;2023-10-09T05:28:09;13.23;;;4.22;;
38851;SDS011;24605;50.092;9.182;2023-10-09T05:30:56;10.40;;;4.57;;
38851;SDS011;24605;50.092;9.182;2023-10-09T05:33:31;14.73;;;4.45;;
38851;SDS011;24605;50.092;9.182;2023-10-09T05:36:00;10.85;;;3.97;;
38851;SDS011;24605;50.092;9.182;2023-10-09T05:38:56;44.10;;;19.85;;
38851;SDS011;24605;50.092;9.182;2023-10-09T05:41:43;20.00;;;7.18;;
38851;SDS011;24605;50.092;9.182;2023-10-09T05:44:13;22.60;;;8.38;;
38851;SDS011;24605;50.092;9.182;2023-10-09T05:46:57;22.08;;;9.55;;
38851;SDS011;24605;50.092;9.182;2023-10-09T05:49:41;8.90;;;4.65;;
38851;SDS011;24605;50.092;9.182;2023-10-09T05:52:20;14.07;;;4.28;;
38851;SDS011;24605;50.092;9.182;2023-10-09T05:54:57;10.85;;;5.53;;
38851;SDS011;24605;50.092;9.182;2023-10-09T05:57:41;26.80;;;12.43;;
38851;SDS011;24605;50.092;9.182;2023-10-09T06:00:40;30.63;;;15.30;;
38851;SDS011;24605;50.092;9.182;2023-10-09T06:03:24;12.73;;;4.70;;
38851;SDS011;24605;50.092;9.182;2023-10-09T06:06:10;14.68;;;3.85;;
38851;SDS011;24605;50.092;9.182;2023-10-09T06:08:43;12.80;;;4.38;;
38851;SDS011;24605;50.092;9.182;2023-10-09T06:11:30;9.13;;;3.95;;
38851;SDS011;24605;50.092;9.182;2023-10-09T06:14:08;12.95;;;4.50;;
38851;SDS011;24605;50.092;9.182;2023-10-09T06:16:38;9.10;;;3.60;;
38851;SDS011;24605;50.092;9.182;2023-10-09T06:19:07;12.30;;;4.18;;
38851;SDS011;24605;50.092;9.182;2023-10-09T06:21:36;8.05;;;3.55;;
38851;SDS011;24605;50.092;9.182;2023-10-09T06:24:26;11.00;;;3.50;;
38851;SDS011;24605;50.092;9.182;2023-10-09T06:26:58;8.88;;;3.33;;
38851;SDS011;24605;50.092;9.182;2023-10-09T06:29:50;8.48;;;3.45;;
38851;SDS011;24605;50.092;9.182;2023-10-09T06:32:16;8.85;;;3.83;;
38851;SDS011;24605;50.092;9.182;2023-10-09T06:34:59;7.63;;;3.83;;
38851;SDS011;24605;50.092;9.182;2023-10-09T06:37:42;8.32;;;3.67;;
38851;SDS011;24605;50.092;9.182;2023-10-09T06:40:27;10.30;;;3.78;;
38851;SDS011;24605;50.092;9.182;2023-10-09T06:43:11;10.13;;;3.72;;
38851;SDS011;24605;50.092;9.182;2023-10-09T06:45:53;10.13;;;3.67;;
38851;SDS011;24605;50.092;9.182;2023-10-09T06:48:23;8.68;;;3.25;;
38851;SDS011;24605;50.092;9.182;2023-10-09T06:51:11;11.20;;;3.72;;
38851;SDS011;24605;50.092;9.182;2023-10-09T06:53:40;7.80;;;3.30;;
38851;SDS011;24605;50.092;9.182;2023-10-09T06:56:29;10.60;;;3.78;;
38851;SDS011;24605;50.092;9.182;2023-10-09T06:59:16;12.15;;;3.33;;
38851;SDS011;24605;50.092;9.182;2023-10-09T07:01:47;10.73;;;3.60;;
38851;SDS011;24605;50.092;9.182;2023-10-09T07:04:37;13.82;;;3.70;;
38851;SDS011;24605;50.092;9.182;2023-10-09T07:07:12;11.82;;;3.67;;
38851;SDS011;24605;50.092;9.182;2023-10-09T07:09:41;13.98;;;3.65;;
38851;SDS011;24605;50.092;9.182;2023-10-09T07:12:07;8.73;;;3.80;;
38851;SDS011;24605;50.092;9.182;2023-10-09T07:14:39;10.20;;;3.53;;
38851;SDS011;24605;50.092;9.182;2023-10-09T07:17:27;8.32;;;3.35;;
38851;SDS011;24605;50.092;9.182;2023-10-09T07:20:08;10.98;;;3.92;;
38851;SDS011;24605;50.092;9.182;2023-10-09T07:22:38;12.88;;;3.92;;
38851;SDS011;24605;50.092;9.182;2023-10-09T07:25:21;11.48;;;3.70;;
38851;SDS011;24605;50.092;9.182;2023-10-09T07:28:06;13.80;;;4.20;;
38851;SDS011;24605;50.092;9.182;2023-10-09T07:30:43;9.77;;;3.75;;
38851;SDS011;24605;50.092;9.182;2023-10-09T07:33:10;10.02;;;3.90;;
38851;SDS011;24605;50.092;9.182;2023-10-09T07:35:43;16.13;;;3.80;;
38851;SDS011;24605;50.092;9.182;2023-10-09T07:38:23;12.25;;;4.43;;
38851;SDS011;24605;50.092;9.182;2023-10-09T07:40:54;16.02;;;3.83;;
38851;SDS011;24605;50.092;9.182;2023-10-09T07:43:25;11.38;;;3.65;;
38851;SDS011;24605;50.092;9.182;2023-10-09T07:45:54;9.10;;;3.60;;
38851;SDS011;24605;50.092;9.182;2023-10-09T07:48:56;18.45;;;4.53;;
38851;SDS011;24605;50.092;9.182;2023-10-09T07:51:24;13.13;;;3.83;;
38851;SDS011;24605;50.092;9.182;2023-10-09T07:53:55;8.50;;;3.33;;
38851;SDS011;24605;50.092;9.182;2023-10-09T07:56:32;9.82;;;3.50;;
38851;SDS011;24605;50.092;9.182;2023-10-09T07:59:03;13.35;;;3.85;;
38851;SDS011;24605;50.092;9.182;2023-10-09T08:01:35;16.40;;;4.50;;
38851;SDS011;24605;50.092;9.182;2023-10-09T08:04:04;14.57;;;3.88;;
38851;SDS011;24605;50.092;9.182;2023-10-09T08:06:36;10.90;;;4.20;;
38851;SDS011;24605;50.092;9.182;2023-10-09T08:09:07;12.43;;;4.82;;
38851;SDS011;24605;50.092;9.182;2023-10-09T08:11:51;13.85;;;5.07;;
38851;SDS011;24605;50.092;9.182;2023-10-09T08:15:00;14.13;;;4.55;;
38851;SDS011;24605;50.092;9.182;2023-10-09T08:17:45;13.00;;;4.57;;
38851;SDS011;24605;50.092;9.182;2023-10-09T08:20:17;11.32;;;4.40;;
38851;SDS011;24605;50.092;9.182;2023-10-09T08:22:42;13.50;;;4.03;;
38851;SDS011;24605;50.092;9.182;2023-10-09T08:25:15;15.65;;;4.53;;
38851;SDS011;24605;50.092;9.182;2023-10-09T08:27:55;10.93;;;3.90;;
38851;SDS011;24605;50.092;9.182;2023-10-09T08:30:55;13.40;;;4.05;;
38851;SDS011;24605;50.092;9.182;2023-10-09T08:33:29;11.38;;;3.42;;
38851;SDS011;24605;50.092;9.182;2023-10-09T08:36:09;11.13;;;4.03;;
38851;SDS011;24605;50.092;9.182;2023-10-09T08:38:36;13.35;;;4.10;;
38851;SDS011;24605;50.092;9.182;2023-10-09T08:41:08;14.45;;;4.18;;
38851;SDS011;24605;50.092;9.182;2023-10-09T08:43:47;12.63;;;4.20;;
38851;SDS011;24605;50.092;9.182;2023-10-09T08:46:21;12.38;;;3.83;;
38851;SDS011;24605;50.092;9.182;2023-10-09T08:48:51;12.30;;;4.35;;
38851;SDS011;24605;50.092;9.182;2023-10-09T08:51:20;13.57;;;4.10;;
38851;SDS011;24605;50.092;9.182;2023-10-09T08:53:48;18.83;;;4.20;;
38851;SDS011;24605;50.092;9.182;2023-10-09T08:56:15;11.45;;;4.25;;
38851;SDS011;24605;50.092;9.182;2023-10-09T08:58:47;12.07;;;4.13;;
38851;SDS011;24605;50.092;9.182;2023-10-09T09:01:15;10.18;;;3.92;;
38851;SDS011;24605;50.092;9.182;2023-10-09T09:03:44;13.15;;;4.10;;
38851;SDS011;24605;50.092;9.182;2023-10-09T09:06:11;11.98;;;4.63;;
38851;SDS011;24605;50.092;9.182;2023-10-09T09:08:40;15.20;;;4.40;;
38851;SDS011;24605;50.092;9.182;2023-10-09T09:11:10;17.70;;;4.40;;
38851;SDS011;24605;50.092;9.182;2023-10-09T09:13:41;11.50;;;4.60;;
38851;SDS011;24605;50.092;9.182;2023-10-09T09:16:14;13.60;;;4.72;;
38851;SDS011;24605;50.092;9.182;2023-10-09T09:18:51;16.13;;;4.10;;
38851;SDS011;24605;50.092;9.182;2023-10-09T09:21:25;13.57;;;4.35;;
38851;SDS011;24605;50.092;9.182;2023-10-09T09:23:54;15.50;;;4.22;;
38851;SDS011;24605;50.092;9.182;2023-10-09T09:26:33;19.80;;;3.97;;
38851;SDS011;24605;50.092;9.182;2023-10-09T09:29:02;15.65;;;3.97;;
38851;SDS011;24605;50.092;9.182;2023-10-09T09:31:33;12.65;;;3.78;;
38851;SDS011;24605;50.092;9.182;2023-10-09T09:34:03;14.63;;;4.07;;
38851;SDS011;24605;50.092;9.182;2023-10-09T09:36:41;14.18;;;4.88;;
38851;SDS011;24605;50.092;9.182;2023-10-09T09:39:19;14.65;;;4.63;;
38851;SDS011;24605;50.092;9.182;2023-10-09T09:41:52;11.82;;;4.20;;
38851;SDS011;24605;50.092;9.182;2023-10-09T09:44:29;15.40;;;4.88;;
38851;SDS011;24605;50.092;9.182;2023-10-09T09:46:58;16.75;;;4.28;;
38851;SDS011;24605;50.092;9.182;2023-10-09T09:49:26;11.52;;;3.85;;
38851;SDS011;24605;50.092;9.182;2023-10-09T09:51:56;9.88;;;4.00;;
38851;SDS011;24605;50.092;9.182;2023-10-09T09:54:25;16.10;;;5.35;;
38851;SDS011;24605;50.092;9.182;2023-10-09T09:56:53;16.60;;;4.07;;
38851;SDS011;24605;50.092;9.182;2023-10-09T09:59:21;11.18;;;3.90;;
38851;SDS011;24605;50.092;9.182;2023-10-09T10:01:53;11.07;;;4.00;;
38851;SDS011;24605;50.092;9.182;2023-10-09T10:04:24;16.77;;;4.68;;
38851;SDS011;24605;50.092;9.182;2023-10-09T10:06:54;13.88;;;4.82;;
38851;SDS011;24605;50.092;9.182;2023-10-09T10:09:36;14.00;;;4.80;;
38851;SDS011;24605;50.092;9.182;2023-10-09T10:12:04;12.98;;;4.40;;
38851;SDS011;24605;50.092;9.182;2023-10-09T10:17:22;9.85;;;4.47;;
38851;SDS011;24605;50.092;9.182;2023-10-09T10:20:04;14.32;;;4.85;;
38851;SDS011;24605;50.092;9.182;2023-10-09T10:22:51;17.13;;;4.65;;
38851;SDS011;24605;50.092;9.182;2023-10-09T10:25:43;19.80;;;5.47;;
38851;SDS011;24605;50.092;9.182;2023-10-09T10:28:18;10.73;;;4.50;;
38851;SDS011;24605;50.092;9.182;2023-10-09T10:31:07;18.13;;;4.97;;
38851;SDS011;24605;50.092;9.182;2023-10-09T10:36:32;11.63;;;3.95;;
38851;SDS011;24605;50.092;9.182;2023-10-09T10:39:00;18.73;;;4.65;;
38851;SDS011;24605;50.092;9.182;2023-10-09T10:41:36;14.27;;;4.32;;
38851;SDS011;24605;50.092;9.182;2023-10-09T10:44:15;10.38;;;4.22;;
38851;SDS011;24605;50.092;9.182;2023-10-09T10:47:07;17.45;;;5.03;;
38851;SDS011;24605;50.092;9.182;2023-10-09T10:49:47;15.80;;;4.80;;
38851;SDS011;24605;50.092;9.182;2023-10-09T10:52:23;16.88;;;4.50;;
38851;SDS011;24605;50.092;9.182;2023-10-09T10:55:07;15.80;;;4.75;;
38851;SDS011;24605;50.092;9.182;2023-10-09T10:57:44;12.88;;;4.38;;
38851;SDS011;24605;50.092;9.182;2023-10-09T11:00:25;16.02;;;4.47;;
38851;SDS011;24605;50.092;9.182;2023-10-09T11:03:10;12.95;;;4.60;;
38851;SDS011;24605;50.092;9.182;2023-10-09T11:05:44;10.80;;;4.50;;
38851;SDS011;24605;50.092;9.182;2023-10-09T11:08:15;14.18;;;5.50;;
38851;SDS011;24605;50.092;9.182;2023-10-09T11:10:47;15.68;;;5.45;;
38851;SDS011;24605;50.092;9.182;2023-10-09T11:13:23;15.00;;;4.88;;
38851;SDS011;24605;50.092;9.182;2023-10-09T11:15:58;13.07;;;6.65;;
38851;SDS011;24605;50.092;9.182;2023-10-09T11:18:39;16.27;;;4.85;;
38851;SDS011;24605;50.092;9.182;2023-10-09T11:21:08;13.18;;;3.95;;
38851;SDS011;24605;50.092;9.182;2023-10-09T11:23:51;13.45;;;4.15;;
38851;SDS011;24605;50.092;9.182;2023-10-09T11:26:24;13.95;;;4.40;;
38851;SDS011;24605;50.092;9.182;2023-10-09T11:29:07;11.48;;;4.38;;
38851;SDS011;24605;50.092;9.182;2023-10-09T11:31:41;15.05;;;4.35;;
38851;SDS011;24605;50.092;9.182;2023-10-09T11:34:22;16.08;;;5.93;;
38851;SDS011;24605;50.092;9.182;2023-10-09T11:36:57;21.17;;;6.95;;
38851;SDS011;24605;50.092;9.182;2023-10-09T11:39:24;12.73;;;4.10;;
38851;SDS011;24605;50.092;9.182;2023-10-09T11:42:00;12.85;;;4.10;;
38851;SDS011;24605;50.092;9.182;2023-10-09T11:44:35;12.60;;;4.18;;
38851;SDS011;24605;50.092;9.182;2023-10-09T11:47:04;13.13;;;4.07;;
38851;SDS011;24605;50.092;9.182;2023-10-09T11:49:48;14.10;;;4.43;;
38851;SDS011;24605;50.092;9.182;2023-10-09T11:52:21;13.15;;;4.65;;
38851;SDS011;24605;50.092;9.182;2023-10-09T11:55:02;16.00;;;4.32;;
38851;SDS011;24605;50.092;9.182;2023-10-09T11:57:31;9.70;;;4.18;;
38851;SDS011;24605;50.092;9.182;2023-10-09T12:00:00;12.05;;;4.22;;
38851;SDS011;24605;50.092;9.182;2023-10-09T12:02:35;12.80;;;4.28;;
38851;SDS011;24605;50.092;9.182;2023-10-09T12:05:09;12.33;;;4.50;;
38851;SDS011;24605;50.092;9.182;2023-10-09T12:07:41;10.38;;;3.90;;
38851;SDS011;24605;50.092;9.182;2023-10-09T12:10:09;9.25;;;3.90;;
38851;SDS011;24605;50.092;9.182;2023-10-09T12:12:36;12.07;;;3.97;;
38851;SDS011;24605;50.092;9.182;2023-10-09T12:15:04;13.63;;;4.50;;
38851;SDS011;24605;50.092;9.182;2023-10-09T12:17:32;10.68;;;4.18;;
38851;SDS011;24605;50.092;9.182;2023-10-09T12:19:59;12.38;;;4.20;;
38851;SDS011;24605;50.092;9.182;2023-10-09T12:22:28;12.95;;;4.10;;
38851;SDS011;24605;50.092;9.182;2023-10-09T12:24:55;12.98;;;4.13;;
38851;SDS011;24605;50.092;9.182;2023-10-09T12:27:22;13.35;;;4.43;;
38851;SDS011;24605;50.092;9.182;2023-10-09T12:29:49;11.77;;;4.50;;
38851;SDS011;24605;50.092;9.182;2023-10-09T12:32:17;10.38;;;3.95;;
38851;SDS011;24605;50.092;9.182;2023-10-09T12:34:46;9.55;;;3.90;;
38851;SDS011;24605;50.092;9.182;2023-10-09T12:37:15;12.85;;;4.15;;
38851;SDS011;24605;50.092;9.182;2023-10-09T12:39:42;11.55;;;4.40;;
38851;SDS011;24605;50.092;9.182;2023-10-09T12:42:11;14.73;;;4.95;;
38851;SDS011;24605;50.092;9.182;2023-10-09T12:44:37;11.82;;;4.20;;
38851;SDS011;24605;50.092;9.182;2023-10-09T12:47:04;11.23;;;4.35;;
38851;SDS011;24605;50.092;9.182;2023-10-09T12:49:32;14.73;;;5.05;;
38851;SDS011;24605;50.092;9.182;2023-10-09T12:51:59;9.57;;;4.05;;
38851;SDS011;24605;50.092;9.182;2023-10-09T12:54:25;9.90;;;4.28;;
38851;SDS011;24605;50.092;9.182;2023-10-09T12:56:53;12.18;;;4.15;;
38851;SDS011;24605;50.092;9.182;2023-10-09T12:59:20;14.57;;;4.45;;
38851;SDS011;24605;50.092;9.182;2023-10-09T13:01:47;12.07;;;4.85;;
38851;SDS011;24605;50.092;9.182;2023-10-09T13:04:17;13.35;;;4.72;;
38851;SDS011;24605;50.092;9.182;2023-10-09T13:06:48;11.90;;;4.63;;
38851;SDS011;24605;50.092;9.182;2023-10-09T13:09:18;16.67;;;4.55;;
38851;SDS011;24605;50.092;9.182;2023-10-09T13:11:58;11.60;;;4.20;;
38851;SDS011;24605;50.092;9.182;2023-10-09T13:14:25;9.88;;;4.07;;
38851;SDS011;24605;50.092;9.182;2023-10-09T13:16:52;10.25;;;4.72;;
38851;SDS011;24605;50.092;9.182;2023-10-09T13:19:18;12.15;;;4.05;;
38851;SDS011;24605;50.092;9.182;2023-10-09T13:21:45;13.07;;;4.43;;
38851;SDS011;24605;50.092;9.182;2023-10-09T13:24:14;11.43;;;4.38;;
38851;SDS011;24605;50.092;9.182;2023-10-09T13:26:41;10.27;;;4.32;;
38851;SDS011;24605;50.092;9.182;2023-10-09T13:29:11;10.63;;;4.00;;
38851;SDS011;24605;50.092;9.182;2023-10-09T13:31:38;13.70;;;4.60;;
38851;SDS011;24605;50.092;9.182;2023-10-09T13:34:12;12.95;;;3.85;;
38851;SDS011;24605;50.092;9.182;2023-10-09T13:36:40;11.90;;;4.53;;
38851;SDS011;24605;50.092;9.182;2023-10-09T13:39:16;8.68;;;3.70;;
38851;SDS011;24605;50.092;9.182;2023-10-09T13:41:48;14.60;;;4.43;;
38851;SDS011;24605;50.092;9.182;2023-10-09T13:44:18;14.40;;;4.53;;
38851;SDS011;24605;50.092;9.182;2023-10-09T13:46:44;13.88;;;4.30;;
38851;SDS011;24605;50.092;9.182;2023-10-09T13:49:15;11.48;;;4.35;;
38851;SDS011;24605;50.092;9.182;2023-10-09T13:51:41;11.25;;;4.30;;
38851;SDS011;24605;50.092;9.182;2023-10-09T13:54:09;12.13;;;4.40;;
38851;SDS011;24605;50.092;9.182;2023-10-09T13:56:44;13.35;;;4.30;;
38851;SDS011;24605;50.092;9.182;2023-10-09T13:59:11;12.27;;;4.43;;
38851;SDS011;24605;50.092;9.182;2023-10-09T14:01:37;10.63;;;4.55;;
38851;SDS011;24605;50.092;9.182;2023-10-09T14:04:05;14.85;;;4.32;;
38851;SDS011;24605;50.092;9.182;2023-10-09T14:06:32;10.77;;;4.10;;
38851;SDS011;24605;50.092;9.182;2023-10-09T14:08:59;11.18;;;4.10;;
38851;SDS011;24605;50.092;9.182;2023-10-09T14:11:29;14.43;;;4.50;;
38851;SDS011;24605;50.092;9.182;2023-10-09T14:13:57;10.10;;;3.83;;
38851;SDS011;24605;50.092;9.182;2023-10-09T14:16:26;12.27;;;4.82;;
38851;SDS011;24605;50.092;9.182;2023-10-09T14:18:53;13.48;;;4.30;;
38851;SDS011;24605;50.092;9.182;2023-10-09T14:21:22;12.43;;;4.10;;
38851;SDS011;24605;50.092;9.182;2023-10-09T14:23:50;10.98;;;4.93;;
38851;SDS011;24605;50.092;9.182;2023-10-09T14:26:20;10.98;;;3.78;;
38851;SDS011;24605;50.092;9.182;2023-10-09T14:28:47;13.40;;;4.53;;
38851;SDS011;24605;50.092;9.182;2023-10-09T14:31:15;15.18;;;4.70;;
38851;SDS011;24605;50.092;9.182;2023-10-09T14:33:47;14.55;;;4.43;;
38851;SDS011;24605;50.092;9.182;2023-10-09T14:36:16;15.75;;;4.15;;
38851;SDS011;24605;50.092;9.182;2023-10-09T14:38:43;10.88;;;4.18;;
38851;SDS011;24605;50.092;9.182;2023-10-09T14:41:11;12.30;;;4.97;;
38851;SDS011;24605;50.092;9.182;2023-10-09T14:43:38;12.25;;;4.07;;
38851;SDS011;24605;50.092;9.182;2023-10-09T14:46:06;15.00;;;4.30;;
38851;SDS011;24605;50.092;9.182;2023-10-09T14:48:37;14.75;;;4.90;;
38851;SDS011;24605;50.092;9.182;2023-10-09T14:51:03;14.88;;;4.47;;
38851;SDS011;24605;50.092;9.182;2023-10-09T14:53:31;13.57;;;4.50;;
38851;SDS011;24605;50.092;9.182;2023-10-09T14:55:59;13.02;;;5.18;;
38851;SDS011;24605;50.092;9.182;2023-10-09T14:58:28;11.25;;;5.00;;
38851;SDS011;24605;50.092;9.182;2023-10-09T15:00:58;13.10;;;5.18;;
38851;SDS011;24605;50.092;9.182;2023-10-09T15:03:34;17.40;;;4.72;;
38851;SDS011;24605;50.092;9.182;2023-10-09T15:06:03;14.73;;;5.00;;
38851;SDS011;24605;50.092;9.182;2023-10-09T15:08:33;13.65;;;4.70;;
38851;SDS011;24605;50.092;9.182;2023-10-09T15:11:00;11.18;;;4.10;;
38851;SDS011;24605;50.092;9.182;2023-10-09T15:13:26;12.40;;;4.40;;
38851;SDS011;24605;50.092;9.182;2023-10-09T15:15:54;12.05;;;4.75;;
38851;SDS011;24605;50.092;9.182;2023-10-09T15:18:21;13.38;;;4.70;;